Time;durP1;ratioP1;P1;durP2;ratioP2;P2;SDS_P1;SDS_P2;PMS_P1;PMS_P2;Temp;Humidity;BMP_temperature;BMP_pressure;BME280_temperature;BME280_humidity;BME280_pressure;Samples;Min_cycle;Max_cycle;Signal;HPM_P1;HPM_P2
2023/08/10 00:00:15;;;;;;;8.02;3.35;;;16.20;99.90;;;;;;5020944;28;20045;-83
2023/08/10 00:02:43;;;;;;;4.72;3.28;;;16.20;99.90;;;;;;5019764;28;20041;-85
2023/08/10 00:05:11;;;;;;;7.35;3.30;;;16.10;99.90;;;;;;5019900;28;20052;-84
2023/08/10 00:07:39;;;;;;;5.82;4.25;;;16.10;99.90;;;;;;5000828;28;20049;-84
2023/08/10 00:10:09;;;;;;;5.15;3.72;;;16.10;99.90;;;;;;5018362;28;20052;-85
2023/08/10 00:12:37;;;;;;;7.90;3.35;;;16.10;99.90;;;;;;5018090;28;20053;-83
2023/08/10 00:15:05;;;;;;;6.10;3.33;;;16.10;99.90;;;;;;5020551;28;20034;-84
2023/08/10 00:17:33;;;;;;;6.00;3.55;;;16.10;99.90;;;;;;5000576;28;20041;-82
2023/08/10 00:20:00;;;;;;;7.00;4.00;;;16.00;99.90;;;;;;5019860;28;20038;-83
2023/08/10 00:22:28;;;;;;;8.02;4.03;;;16.10;99.90;;;;;;5026466;28;20475;-84
2023/08/10 00:24:56;;;;;;;7.05;3.75;;;16.10;99.90;;;;;;5002086;28;20052;-83
2023/08/10 00:27:25;;;;;;;5.38;3.45;;;16.10;99.90;;;;;;5018656;28;20041;-83
2023/08/10 00:29:53;;;;;;;6.07;3.72;;;16.10;99.90;;;;;;5003237;28;20045;-82
2023/08/10 00:32:21;;;;;;;5.90;3.40;;;16.00;99.90;;;;;;5019198;28;20092;-82
2023/08/10 00:34:48;;;;;;;5.07;3.75;;;15.90;99.90;;;;;;5002711;28;20038;-84
2023/08/10 00:37:16;;;;;;;8.63;3.85;;;15.90;99.90;;;;;;5001992;28;20076;-83
2023/08/10 00:39:44;;;;;;;6.13;3.53;;;15.90;99.90;;;;;;5001612;28;20050;-84
2023/08/10 00:42:12;;;;;;;7.75;4.20;;;15.80;99.90;;;;;;5019661;28;20059;-84
2023/08/10 00:44:41;;;;;;;6.95;4.07;;;15.80;99.90;;;;;;5004428;28;20474;-82
2023/08/10 00:47:10;;;;;;;8.73;4.13;;;15.70;99.90;;;;;;5022500;28;20045;-84
2023/08/10 00:49:37;;;;;;;7.68;4.00;;;15.80;99.90;;;;;;5005229;28;20037;-83
2023/08/10 00:52:06;;;;;;;8.57;4.18;;;15.80;99.90;;;;;;5023703;28;20470;-84
2023/08/10 00:54:35;;;;;;;5.72;3.70;;;15.90;99.90;;;;;;5005424;28;20080;-82
2023/08/10 00:57:02;;;;;;;6.28;3.80;;;15.90;99.90;;;;;;5023481;28;20064;-83
2023/08/10 00:59:32;;;;;;;5.10;3.70;;;15.90;99.90;;;;;;5026130;28;20049;-84
2023/08/10 01:02:01;;;;;;;7.40;3.97;;;15.90;99.90;;;;;;5043996;28;20026;-83
2023/08/10 01:04:29;;;;;;;6.22;3.63;;;15.90;99.90;;;;;;5003821;28;20374;-84
2023/08/10 01:07:03;;;;;;;6.30;3.90;;;15.90;99.90;;;;;;5000446;28;20254;-82
2023/08/10 01:09:38;;;;;;;8.20;3.95;;;15.90;99.90;;;;;;5001342;28;20472;-84
2023/08/10 01:12:18;;;;;;;5.70;3.20;;;15.90;99.90;;;;;;5020229;28;20053;-84
2023/08/10 01:14:51;;;;;;;7.05;4.00;;;15.90;99.90;;;;;;5002451;28;20057;-82
2023/08/10 01:17:29;;;;;;;6.65;4.32;;;15.90;99.90;;;;;;5004613;28;20734;-83
2023/08/10 01:20:00;;;;;;;7.50;4.80;;;16.00;99.90;;;;;;5026626;28;20605;-82
2023/08/10 01:22:40;;;;;;;9.77;4.43;;;15.80;99.90;;;;;;5017984;28;20390;-83
2023/08/10 01:25:10;;;;;;;5.10;3.50;;;15.80;99.90;;;;;;5018114;28;20045;-83
2023/08/10 01:27:39;;;;;;;9.52;5.65;;;15.80;99.90;;;;;;5018291;28;20116;-82
2023/08/10 01:30:08;;;;;;;7.28;4.28;;;15.80;99.90;;;;;;5000935;28;20087;-83
2023/08/10 01:32:35;;;;;;;7.00;4.25;;;15.70;99.90;;;;;;5001810;28;20045;-82
2023/08/10 01:35:05;;;;;;;6.32;3.67;;;15.80;99.90;;;;;;5017130;28;20038;-84
2023/08/10 01:37:33;;;;;;;6.32;3.95;;;15.80;99.90;;;;;;5000860;28;20045;-83
2023/08/10 01:40:01;;;;;;;6.93;3.90;;;15.80;99.90;;;;;;5000324;28;20089;-85
2023/08/10 01:42:29;;;;;;;8.30;4.05;;;15.80;99.90;;;;;;5002923;28;20505;-83
2023/08/10 01:44:57;;;;;;;6.97;3.63;;;15.80;99.90;;;;;;5003484;28;20666;-84
2023/08/10 01:47:28;;;;;;;8.02;3.78;;;15.70;99.90;;;;;;5003584;28;20049;-84
2023/08/10 01:49:57;;;;;;;5.45;3.55;;;15.70;99.90;;;;;;5035070;28;20114;-82
2023/08/10 01:52:29;;;;;;;5.10;4.00;;;15.70;99.90;;;;;;5014759;28;20133;-83
2023/08/10 01:54:57;;;;;;;5.47;3.60;;;15.70;99.90;;;;;;5047619;28;20053;-84
2023/08/10 01:57:28;;;;;;;5.28;3.80;;;15.70;99.90;;;;;;5016290;28;20046;-86
2023/08/10 01:59:58;;;;;;;9.02;3.90;;;15.70;99.90;;;;;;5021920;28;20054;-83
2023/08/10 02:02:25;;;;;;;5.55;3.83;;;15.60;99.90;;;;;;5022067;28;20108;-83
2023/08/10 02:04:53;;;;;;;6.72;3.90;;;15.50;99.90;;;;;;5023161;28;20052;-83
2023/08/10 02:07:22;;;;;;;6.10;3.90;;;15.60;99.90;;;;;;5020868;28;20064;-83
2023/08/10 02:09:49;;;;;;;7.53;3.90;;;15.60;99.90;;;;;;5022625;28;20082;-82
2023/08/10 02:12:17;;;;;;;5.85;3.72;;;15.50;99.90;;;;;;5003881;28;20704;-84
2023/08/10 02:14:45;;;;;;;5.65;3.75;;;15.40;99.90;;;;;;5006753;28;20057;-84
2023/08/10 02:17:16;;;;;;;6.07;4.13;;;15.50;99.90;;;;;;5021638;28;20046;-81
2023/08/10 02:19:44;;;;;;;6.65;4.25;;;15.40;99.90;;;;;;5004572;28;20096;-83
2023/08/10 02:22:11;;;;;;;7.10;3.85;;;15.30;99.90;;;;;;5021206;28;20046;-84
2023/08/10 02:24:39;;;;;;;6.45;3.90;;;15.20;99.90;;;;;;5021857;28;20103;-84
2023/08/10 02:27:06;;;;;;;7.95;4.00;;;15.10;99.90;;;;;;5038841;22;20048;-77
2023/08/10 02:29:34;;;;;;;7.10;3.90;;;15.10;99.90;;;;;;5027785;28;20041;-77
2023/08/10 02:32:01;;;;;;;6.00;4.30;;;15.20;99.90;;;;;;5022210;28;20413;-76
2023/08/10 02:34:30;;;;;;;7.28;3.92;;;15.10;99.90;;;;;;5023020;28;20037;-77
2023/08/10 02:36:58;;;;;;;13.40;4.60;;;15.00;99.90;;;;;;5021745;28;20044;-78
2023/08/10 02:39:25;;;;;;;6.15;4.00;;;14.90;99.90;;;;;;5021421;28;20041;-78
2023/08/10 02:41:52;;;;;;;6.28;4.20;;;14.90;99.90;;;;;;5023417;28;20239;-76
2023/08/10 02:44:20;;;;;;;7.32;4.72;;;14.90;99.90;;;;;;5021468;28;20100;-76
2023/08/10 02:46:48;;;;;;;7.75;4.07;;;14.80;99.90;;;;;;5024581;28;20501;-75
2023/08/10 02:49:16;;;;;;;8.07;4.70;;;14.80;99.90;;;;;;5039767;28;20052;-77
2023/08/10 02:51:45;;;;;;;7.10;4.25;;;14.70;99.90;;;;;;5021658;28;20059;-76
2023/08/10 02:54:12;;;;;;;7.07;4.70;;;14.60;99.90;;;;;;5021237;28;20482;-76
2023/08/10 02:56:40;;;;;;;7.35;4.30;;;14.50;99.90;;;;;;5041047;28;20370;-76
2023/08/10 02:59:08;;;;;;;7.53;4.85;;;14.50;99.90;;;;;;5021605;28;20056;-76
2023/08/10 03:01:36;;;;;;;6.40;4.35;;;14.50;99.90;;;;;;5039546;28;20041;-76
2023/08/10 03:04:05;;;;;;;6.68;4.47;;;14.40;99.90;;;;;;5020547;28;20065;-76
2023/08/10 03:06:33;;;;;;;7.10;4.65;;;14.40;99.90;;;;;;5038795;28;20133;-76
2023/08/10 03:09:02;;;;;;;6.18;4.03;;;14.40;99.90;;;;;;5022541;28;20202;-76
2023/08/10 03:11:30;;;;;;;7.20;4.38;;;14.40;99.90;;;;;;5021151;28;20033;-77
2023/08/10 03:13:57;;;;;;;7.22;4.82;;;14.40;99.90;;;;;;5022304;28;20052;-76
2023/08/10 03:16:25;;;;;;;8.10;4.97;;;14.40;99.90;;;;;;5019132;28;20056;-76
2023/08/10 03:18:53;;;;;;;5.28;4.28;;;14.40;99.90;;;;;;5038073;28;20453;-78
2023/08/10 03:21:20;;;;;;;7.97;4.10;;;14.30;99.90;;;;;;5021355;28;20041;-76
2023/08/10 03:23:48;;;;;;;7.22;4.18;;;14.30;99.90;;;;;;5022453;28;20128;-76
2023/08/10 03:26:17;;;;;;;8.60;4.55;;;14.20;99.90;;;;;;5022049;28;20060;-77
2023/08/10 03:28:45;;;;;;;8.30;4.30;;;14.20;99.90;;;;;;5040055;28;20037;-77
2023/08/10 03:31:14;;;;;;;8.25;4.25;;;14.20;99.90;;;;;;5021535;28;20045;-76
2023/08/10 03:33:42;;;;;;;8.63;4.15;;;14.10;99.90;;;;;;5021507;28;20501;-76
2023/08/10 03:36:10;;;;;;;7.88;4.60;;;14.10;99.90;;;;;;5020986;28;20132;-78
2023/08/10 03:38:38;;;;;;;10.57;4.00;;;14.10;99.90;;;;;;5023170;28;20155;-76
2023/08/10 03:41:05;;;;;;;10.23;4.90;;;14.20;99.90;;;;;;5020780;28;20061;-78
2023/08/10 03:43:34;;;;;;;6.57;4.05;;;14.00;99.90;;;;;;5021897;28;20128;-76
2023/08/10 03:46:05;;;;;;;7.57;4.70;;;14.00;99.90;;;;;;5038288;28;20152;-76
2023/08/10 03:48:33;;;;;;;6.95;4.30;;;13.90;99.90;;;;;;5022432;28;20041;-77
2023/08/10 03:51:01;;;;;;;10.18;4.55;;;13.90;99.90;;;;;;5021279;28;20072;-77
2023/08/10 03:53:28;;;;;;;12.20;4.90;;;14.00;99.90;;;;;;5022030;28;20055;-78
2023/08/10 03:55:56;;;;;;;8.63;4.07;;;14.00;99.90;;;;;;5035886;28;20041;-75
2023/08/10 03:58:23;;;;;;;7.07;4.18;;;14.00;99.90;;;;;;5021841;28;20056;-76
2023/08/10 04:00:53;;;;;;;12.48;6.10;;;13.90;99.90;;;;;;5020063;28;20045;-77
2023/08/10 04:03:21;;;;;;;11.13;5.30;;;13.90;99.90;;;;;;5019727;28;20049;-78
2023/08/10 04:05:49;;;;;;;8.15;5.38;;;13.90;99.90;;;;;;5034637;28;20054;-77
2023/08/10 04:08:16;;;;;;;8.82;5.15;;;13.90;99.90;;;;;;5037296;28;20046;-77
2023/08/10 04:10:44;;;;;;;9.00;4.53;;;13.90;99.90;;;;;;5038168;28;20492;-78
2023/08/10 04:13:11;;;;;;;8.30;4.53;;;13.90;99.90;;;;;;5039266;28;20073;-76
2023/08/10 04:15:39;;;;;;;7.88;4.13;;;13.90;99.90;;;;;;5014173;28;20049;-76
2023/08/10 04:18:08;;;;;;;13.68;4.97;;;14.00;99.90;;;;;;5045450;28;20037;-76
2023/08/10 04:20:36;;;;;;;6.88;4.38;;;14.10;99.90;;;;;;5038897;28;20049;-76
2023/08/10 04:23:05;;;;;;;7.97;5.25;;;14.30;99.90;;;;;;5038821;28;20443;-76
2023/08/10 04:25:32;;;;;;;7.97;5.57;;;14.60;99.90;;;;;;5021217;28;20041;-76
2023/08/10 04:28:01;;;;;;;10.75;5.68;;;15.10;99.90;;;;;;5040185;28;20089;-76
2023/08/10 04:30:29;;;;;;;8.57;5.70;;;15.60;99.90;;;;;;5035847;28;20084;-77
2023/08/10 04:32:56;;;;;;;9.18;5.45;;;16.10;99.90;;;;;;5018027;28;20481;-80
2023/08/10 04:35:27;;;;;;;9.93;4.70;;;16.60;99.90;;;;;;5042659;28;20121;-80
2023/08/10 04:37:54;;;;;;;7.45;4.25;;;17.10;99.90;;;;;;5027231;28;20045;-77
2023/08/10 04:40:23;;;;;;;7.63;4.80;;;17.50;99.90;;;;;;5040806;28;20049;-78
2023/08/10 04:42:51;;;;;;;7.57;4.50;;;17.60;99.90;;;;;;5038653;28;20091;-79
2023/08/10 04:45:19;;;;;;;7.72;3.97;;;17.40;99.90;;;;;;5041429;28;21475;-77
2023/08/10 04:47:47;;;;;;;8.48;5.47;;;17.30;99.90;;;;;;5023370;28;20049;-79
2023/08/10 04:50:14;;;;;;;7.45;4.95;;;17.20;99.90;;;;;;5041641;28;20758;-77
2023/08/10 04:52:43;;;;;;;13.30;6.80;;;17.20;99.90;;;;;;5040286;28;20643;-80
2023/08/10 04:55:12;;;;;;;8.02;4.63;;;17.10;99.90;;;;;;5037288;28;20433;-76
2023/08/10 04:57:39;;;;;;;9.57;4.97;;;17.10;99.90;;;;;;5024102;28;20480;-78
2023/08/10 05:00:13;;;;;;;11.45;5.72;;;17.00;99.90;;;;;;5064640;28;20028;-78
2023/08/10 05:02:40;;;;;;;12.77;6.40;;;16.90;99.90;;;;;;5064904;28;20061;-76
2023/08/10 05:05:09;;;;;;;9.65;5.78;;;16.90;99.90;;;;;;5060803;28;20064;-76
2023/08/10 05:07:37;;;;;;;10.57;6.53;;;16.70;99.90;;;;;;5041409;28;20045;-76
2023/08/10 05:10:08;;;;;;;12.82;6.10;;;16.70;99.90;;;;;;5042639;28;20128;-77
2023/08/10 05:12:38;;;;;;;8.65;5.10;;;16.90;99.90;;;;;;5043679;28;20079;-78
2023/08/10 05:15:08;;;;;;;11.10;6.90;;;17.20;99.90;;;;;;5035218;28;20515;-79
2023/08/10 05:17:35;;;;;;;9.43;5.28;;;17.40;99.90;;;;;;5042583;28;20115;-77
2023/08/10 05:20:10;;;;;;;10.98;5.53;;;17.60;99.90;;;;;;5039909;28;20041;-76
2023/08/10 05:22:38;;;;;;;11.95;5.13;;;17.80;99.90;;;;;;5024801;28;20869;-78
2023/08/10 05:25:08;;;;;;;8.52;5.38;;;18.20;99.90;;;;;;5043017;28;20069;-80
2023/08/10 05:27:36;;;;;;;14.48;5.28;;;18.60;99.90;;;;;;5042300;28;20080;-78
2023/08/10 05:30:05;;;;;;;12.48;5.25;;;19.30;99.90;;;;;;5041616;28;20038;-82
2023/08/10 05:32:33;;;;;;;8.90;4.78;;;19.60;99.90;;;;;;5042690;28;20034;-79
2023/08/10 05:35:02;;;;;;;8.48;4.80;;;19.70;99.90;;;;;;5024745;28;20045;-80
2023/08/10 05:37:30;;;;;;;9.98;4.50;;;19.90;99.90;;;;;;5050699;28;20064;-77
2023/08/10 05:39:57;;;;;;;12.07;5.97;;;20.00;99.90;;;;;;5049742;28;20091;-78
2023/08/10 05:42:26;;;;;;;12.20;7.28;;;19.70;99.90;;;;;;5056104;28;20072;-77
2023/08/10 05:44:54;;;;;;;10.75;5.88;;;19.30;99.90;;;;;;5042403;28;20033;-80
2023/08/10 05:47:21;;;;;;;9.68;5.57;;;19.10;99.90;;;;;;5044945;28;20045;-76
2023/08/10 05:49:49;;;;;;;10.07;4.93;;;18.90;99.90;;;;;;5042010;28;20052;-76
2023/08/10 05:52:16;;;;;;;10.07;5.13;;;18.70;99.90;;;;;;5041795;28;20072;-79
2023/08/10 05:54:44;;;;;;;11.02;5.03;;;18.60;99.90;;;;;;5041982;28;20061;-80
2023/08/10 05:57:11;;;;;;;13.10;6.65;;;18.50;99.90;;;;;;5039340;28;20095;-77
2023/08/10 05:59:41;;;;;;;9.57;5.03;;;18.60;99.90;;;;;;5043314;28;20045;-82
2023/08/10 06:02:09;;;;;;;10.00;5.72;;;18.90;99.90;;;;;;5038282;28;20555;-78
2023/08/10 06:04:36;;;;;;;10.00;5.28;;;19.20;99.90;;;;;;5040333;28;20052;-81
2023/08/10 06:07:03;;;;;;;8.98;5.57;;;19.60;99.90;;;;;;5040639;28;20040;-77
2023/08/10 06:09:31;;;;;;;11.50;6.10;;;20.10;99.90;;;;;;5043437;28;20062;-77
2023/08/10 06:11:58;;;;;;;11.52;5.93;;;20.30;99.90;;;;;;5043091;28;20045;-77
2023/08/10 06:14:25;;;;;;;15.23;6.38;;;20.50;99.90;;;;;;5044472;28;20069;-79
2023/08/10 06:16:54;;;;;;;10.15;5.95;;;20.90;99.90;;;;;;5042216;28;20040;-78
2023/08/10 06:19:22;;;;;;;10.73;6.45;;;21.20;99.90;;;;;;5042258;28;20079;-77
2023/08/10 06:21:50;;;;;;;15.80;9.38;;;21.30;99.90;;;;;;5042019;28;20045;-79
2023/08/10 06:24:18;;;;;;;16.67;11.38;;;21.30;99.90;;;;;;5044176;28;20060;-80
2023/08/10 06:26:45;;;;;;;15.90;11.93;;;21.40;99.90;;;;;;5044977;28;20049;-80
2023/08/10 06:29:13;;;;;;;21.38;13.70;;;21.60;99.90;;;;;;5042748;28;20076;-79
2023/08/10 06:31:40;;;;;;;24.90;14.10;;;21.60;99.90;;;;;;5024341;28;20482;-78
2023/08/10 06:34:10;;;;;;;22.67;16.80;;;21.40;99.90;;;;;;5041823;28;20048;-77
2023/08/10 06:36:38;;;;;;;27.65;16.55;;;21.20;99.90;;;;;;5039046;28;20079;-78
2023/08/10 06:39:07;;;;;;;33.42;19.02;;;21.00;99.90;;;;;;5022304;28;20401;-79
2023/08/10 06:41:38;;;;;;;29.40;17.63;;;20.90;99.90;;;;;;5041988;28;20496;-79
2023/08/10 06:44:07;;;;;;;31.27;16.00;;;20.90;99.90;;;;;;5037544;28;20080;-78
2023/08/10 06:46:35;;;;;;;28.75;14.15;;;21.10;99.90;;;;;;5040107;28;20050;-77
2023/08/10 06:49:02;;;;;;;29.20;15.95;;;21.20;99.90;;;;;;5040489;28;20064;-77
2023/08/10 06:51:31;;;;;;;31.65;18.10;;;21.50;99.90;;;;;;5038436;28;20523;-80
2023/08/10 06:53:58;;;;;;;28.77;16.30;;;21.90;99.90;;;;;;5042609;28;20101;-77
2023/08/10 06:56:26;;;;;;;35.10;18.25;;;22.40;99.90;;;;;;5023357;28;20056;-78
2023/08/10 06:58:53;;;;;;;25.20;15.38;;;22.90;99.90;;;;;;5043241;28;20052;-79
2023/08/10 07:01:21;;;;;;;21.35;14.82;;;23.30;99.90;;;;;;5043058;28;20052;-80
2023/08/10 07:03:48;;;;;;;28.08;17.15;;;23.30;99.90;;;;;;5024293;28;20042;-79
2023/08/10 07:06:17;;;;;;;29.23;16.30;;;23.30;99.90;;;;;;5038095;28;20663;-79
2023/08/10 07:08:46;;;;;;;23.70;14.90;;;23.40;99.90;;;;;;5042266;28;20133;-81
2023/08/10 07:11:14;;;;;;;23.25;14.02;;;23.50;99.90;;;;;;5040188;28;20029;-80
2023/08/10 07:13:42;;;;;;;30.17;14.40;;;23.80;99.90;;;;;;5036354;28;20561;-78
2023/08/10 07:16:09;;;;;;;25.05;14.52;;;23.80;99.90;;;;;;5040503;28;20191;-78
2023/08/10 07:18:37;;;;;;;22.13;13.82;;;23.90;99.90;;;;;;5023299;28;20049;-79
2023/08/10 07:21:04;;;;;;;28.05;15.13;;;24.10;99.90;;;;;;5024269;28;20051;-80
2023/08/10 07:23:31;;;;;;;24.70;13.48;;;24.30;99.90;;;;;;5049171;28;20037;-79
2023/08/10 07:26:00;;;;;;;22.60;13.95;;;24.60;99.90;;;;;;5044907;28;20045;-80
2023/08/10 07:28:28;;;;;;;26.48;13.90;;;24.70;99.90;;;;;;5048090;28;20050;-80
2023/08/10 07:30:55;;;;;;;17.98;10.77;;;24.70;99.90;;;;;;5042647;28;20037;-81
2023/08/10 07:33:22;;;;;;;22.20;12.75;;;24.70;99.90;;;;;;5039658;28;20439;-79
2023/08/10 07:35:50;;;;;;;17.65;11.65;;;24.70;99.90;;;;;;5040992;28;20034;-79
2023/08/10 07:38:18;;;;;;;19.52;11.40;;;25.00;99.90;;;;;;5039052;28;20492;-78
2023/08/10 07:40:47;;;;;;;22.92;12.85;;;25.10;99.90;;;;;;5038458;28;20045;-81
2023/08/10 07:43:17;;;;;;;18.92;11.63;;;25.20;99.90;;;;;;5044995;28;20047;-80
2023/08/10 07:45:46;;;;;;;17.10;9.85;;;25.30;99.90;;;;;;5039880;28;20050;-81
2023/08/10 07:48:13;;;;;;;14.40;8.23;;;25.20;99.90;;;;;;5039316;28;20048;-79
2023/08/10 07:50:41;;;;;;;17.25;9.57;;;25.20;99.90;;;;;;5023531;28;20045;-79
2023/08/10 07:53:08;;;;;;;17.65;8.20;;;25.40;99.90;;;;;;5041781;28;20115;-79
2023/08/10 07:55:37;;;;;;;14.32;9.07;;;25.70;99.90;;;;;;5040952;28;20041;-81
2023/08/10 07:58:05;;;;;;;18.13;10.95;;;25.60;99.90;;;;;;5037111;28;20087;-79
2023/08/10 08:00:35;;;;;;;17.88;8.45;;;25.30;99.90;;;;;;5042349;28;20559;-81
2023/08/10 08:03:03;;;;;;;13.57;7.57;;;25.30;99.90;;;;;;5041186;28;20107;-79
2023/08/10 08:05:30;;;;;;;12.10;7.03;;;25.40;99.90;;;;;;5045857;28;20064;-79
2023/08/10 08:07:58;;;;;;;12.90;6.63;;;25.40;99.90;;;;;;5043384;28;20041;-83
2023/08/10 08:10:25;;;;;;;10.10;6.03;;;25.60;99.90;;;;;;5061847;28;20051;-79
2023/08/10 08:12:53;;;;;;;13.80;6.43;;;25.70;99.90;;;;;;5047631;28;20104;-81
2023/08/10 08:15:22;;;;;;;9.18;5.57;;;26.00;99.90;;;;;;5062724;28;20025;-80
2023/08/10 08:18:27;;;;;;;10.73;5.95;;;26.20;99.90;;;;;;5050658;28;20128;-79
2023/08/10 08:20:58;;;;;;;10.23;5.10;;;26.80;99.90;;;;;;5039655;28;20045;-78
2023/08/10 08:23:25;;;;;;;7.70;5.03;;;26.80;99.90;;;;;;5025853;28;20065;-79
2023/08/10 08:25:53;;;;;;;13.30;7.00;;;26.50;99.90;;;;;;5054724;22;20049;-74
2023/08/10 08:28:20;;;;;;;16.95;9.18;;;26.60;99.90;;;;;;5022512;28;20097;-75
2023/08/10 08:30:48;;;;;;;13.85;7.22;;;26.80;99.90;;;;;;5002946;28;20108;-78
2023/08/10 08:33:16;;;;;;;11.98;7.97;;;26.50;99.90;;;;;;5005245;28;20458;-77
2023/08/10 08:35:46;;;;;;;15.98;7.47;;;26.00;99.90;;;;;;4988450;28;20050;-74
2023/08/10 08:38:15;;;;;;;16.27;10.02;;;25.70;99.90;;;;;;5002982;28;20101;-77
2023/08/10 08:40:43;;;;;;;11.40;7.95;;;25.70;99.90;;;;;;5002062;28;20042;-75
2023/08/10 08:43:12;;;;;;;13.35;6.85;;;25.20;99.90;;;;;;5001621;28;20049;-77
2023/08/10 08:45:40;;;;;;;12.18;6.43;;;25.30;99.90;;;;;;5000472;28;20046;-74
2023/08/10 08:48:09;;;;;;;12.32;7.13;;;25.40;99.90;;;;;;5002931;28;20042;-79
2023/08/10 08:50:37;;;;;;;12.40;7.75;;;25.50;99.90;;;;;;5002430;28;20384;-76
2023/08/10 08:53:08;;;;;;;11.25;7.65;;;25.60;99.90;;;;;;5002422;28;20034;-78
2023/08/10 08:55:38;;;;;;;13.23;7.75;;;25.80;99.90;;;;;;5002000;28;20046;-74
2023/08/10 08:58:05;;;;;;;10.60;7.10;;;26.20;99.90;;;;;;5001901;28;20073;-77
2023/08/10 09:00:33;;;;;;;16.85;11.07;;;26.10;99.90;;;;;;5000472;28;20482;-75
2023/08/10 09:03:01;;;;;;;9.88;7.20;;;26.00;99.90;;;;;;5001504;28;20351;-74
2023/08/10 09:05:29;;;;;;;7.13;3.83;;;26.10;99.90;;;;;;4982193;28;20050;-74
2023/08/10 09:07:58;;;;;;;4.07;2.45;;;25.90;99.90;;;;;;5002603;28;20045;-75
2023/08/10 09:10:25;;;;;;;7.55;2.40;;;24.80;99.90;;;;;;5000959;28;20042;-79
2023/08/10 09:12:54;;;;;;;3.65;2.30;;;25.10;99.90;;;;;;4999869;28;20069;-78
2023/08/10 09:15:26;;;;;;;5.63;2.40;;;25.20;99.90;;;;;;5007933;28;20034;-81
2023/08/10 09:17:54;;;;;;;4.05;2.78;;;24.50;99.90;;;;;;5001372;28;20050;-78
2023/08/10 09:20:24;;;;;;;3.22;2.03;;;24.30;99.90;;;;;;4985115;28;20547;-75
2023/08/10 09:22:54;;;;;;;4.07;2.13;;;24.10;99.90;;;;;;5004787;28;20042;-77
2023/08/10 09:25:22;;;;;;;3.35;2.28;;;24.00;99.90;;;;;;4998817;28;20412;-77
2023/08/10 09:27:51;;;;;;;3.05;2.03;;;23.80;99.90;;;;;;4999303;28;20062;-78
2023/08/10 09:30:20;;;;;;;4.85;2.92;;;23.60;99.90;;;;;;5008778;28;20050;-77
2023/08/10 09:32:48;;;;;;;6.15;2.72;;;23.40;99.90;;;;;;5001945;28;20517;-78
2023/08/10 09:35:16;;;;;;;6.18;4.50;;;24.00;99.90;;;;;;5006733;28;20065;-76
2023/08/10 09:37:47;;;;;;;8.35;6.78;;;24.50;99.90;;;;;;5011508;28;20093;-77
2023/08/10 09:40:16;;;;;;;3.85;2.03;;;24.90;99.90;;;;;;5008650;28;20104;-77
2023/08/10 09:42:44;;;;;;;4.65;3.45;;;25.10;99.90;;;;;;4990508;28;20050;-75
2023/08/10 09:45:15;;;;;;;4.50;3.13;;;25.50;99.90;;;;;;5008450;28;20046;-78
2023/08/10 09:47:44;;;;;;;5.20;3.95;;;25.90;99.90;;;;;;5007676;28;20046;-74
2023/08/10 09:50:14;;;;;;;4.80;2.85;;;26.10;99.90;;;;;;5001179;28;20050;-80
2023/08/10 09:52:44;;;;;;;3.80;3.10;;;26.10;99.90;;;;;;5003047;28;20043;-80
2023/08/10 09:55:12;;;;;;;4.82;3.45;;;25.50;99.90;;;;;;5001120;28;20368;-76
2023/08/10 09:57:40;;;;;;;6.68;3.30;;;25.00;99.90;;;;;;5000806;28;20043;-77
2023/08/10 10:00:16;;;;;;;6.07;4.07;;;25.40;99.90;;;;;;4986962;28;20114;-77
2023/08/10 10:02:45;;;;;;;16.10;14.35;;;25.50;99.90;;;;;;4986837;28;20046;-78
2023/08/10 10:05:12;;;;;;;6.40;4.25;;;25.70;99.90;;;;;;5008238;28;20061;-78
2023/08/10 10:07:41;;;;;;;5.88;3.85;;;25.90;99.90;;;;;;5012824;28;20049;-76
2023/08/10 10:10:13;;;;;;;7.15;3.58;;;25.90;99.90;;;;;;5005079;28;20444;-77
2023/08/10 10:12:42;;;;;;;5.68;3.53;;;25.80;99.90;;;;;;5007068;28;20046;-76
2023/08/10 10:15:11;;;;;;;4.22;2.45;;;26.00;99.90;;;;;;5003028;28;20497;-75
2023/08/10 10:17:40;;;;;;;4.30;3.05;;;25.70;99.90;;;;;;5005088;28;20132;-75
2023/08/10 10:20:11;;;;;;;6.40;2.90;;;26.30;99.90;;;;;;5005497;28;20081;-78
2023/08/10 10:22:40;;;;;;;5.13;3.05;;;26.50;99.90;;;;;;5003728;28;20129;-76
2023/08/10 10:25:15;;;;;;;6.10;2.70;;;26.40;99.90;;;;;;5003936;28;20575;-78
2023/08/10 10:27:48;;;;;;;9.45;3.30;;;26.50;99.90;;;;;;4983093;28;20045;-77
2023/08/10 10:30:17;;;;;;;4.20;2.65;;;26.20;99.90;;;;;;4991133;28;20050;-78
2023/08/10 10:32:46;;;;;;;4.07;2.75;;;26.30;99.90;;;;;;4991882;28;20042;-75
2023/08/10 10:35:23;;;;;;;3.80;2.60;;;26.20;99.90;;;;;;4990532;28;20445;-78
2023/08/10 10:37:57;;;;;;;9.80;8.43;;;26.10;99.90;;;;;;4986071;28;20042;-75
2023/08/10 10:40:27;;;;;;;6.38;5.45;;;26.30;99.90;;;;;;4986128;28;20439;-76
2023/08/10 10:43:08;;;;;;;5.07;2.90;;;26.90;99.90;;;;;;4987430;28;20405;-75
2023/08/10 10:45:38;;;;;;;4.22;2.80;;;27.40;99.90;;;;;;4994168;28;20050;-76
2023/08/10 10:48:06;;;;;;;6.03;3.40;;;27.60;99.90;;;;;;4988087;28;20046;-77
2023/08/10 10:50:36;;;;;;;5.65;2.70;;;27.40;99.90;;;;;;4988917;28;20100;-76
2023/08/10 10:53:05;;;;;;;3.75;2.28;;;27.30;99.90;;;;;;4983782;28;20039;-76
2023/08/10 10:55:41;;;;;;;6.63;3.30;;;26.60;99.90;;;;;;4983753;28;20165;-75
2023/08/10 10:58:09;;;;;;;3.83;2.67;;;26.40;99.90;;;;;;4982798;28;20491;-75
2023/08/10 11:00:38;;;;;;;4.55;2.80;;;26.50;99.90;;;;;;4982603;28;20039;-75
2023/08/10 11:03:07;;;;;;;5.20;2.65;;;26.10;99.90;;;;;;4993081;28;20054;-76
2023/08/10 11:05:36;;;;;;;4.88;2.85;;;25.80;99.90;;;;;;4985824;28;20126;-76
2023/08/10 11:08:06;;;;;;;7.28;3.70;;;25.50;99.90;;;;;;4982960;28;20553;-75
2023/08/10 11:10:36;;;;;;;5.20;3.05;;;25.70;99.90;;;;;;4981804;28;20518;-77
2023/08/10 11:13:05;;;;;;;5.50;3.60;;;25.90;99.90;;;;;;4988720;28;20054;-78
2023/08/10 11:15:36;;;;;;;7.03;4.05;;;26.00;99.90;;;;;;4985383;28;20050;-76
2023/08/10 11:18:10;;;;;;;5.40;3.60;;;26.00;99.90;;;;;;4983541;28;20046;-76
2023/08/10 11:20:43;;;;;;;7.03;3.38;;;26.60;99.90;;;;;;4983872;28;20043;-75
2023/08/10 11:23:11;;;;;;;6.85;5.07;;;27.20;99.90;;;;;;4982330;28;20137;-76
2023/08/10 11:25:49;;;;;;;7.47;3.70;;;27.40;99.90;;;;;;4982040;28;20514;-74
2023/08/10 11:28:18;;;;;;;6.03;4.00;;;27.50;99.90;;;;;;4984404;28;20038;-76
2023/08/10 11:30:46;;;;;;;6.47;4.20;;;27.60;99.90;;;;;;4984682;28;20038;-76
2023/08/10 11:33:16;;;;;;;4.95;3.10;;;27.70;99.90;;;;;;4983256;28;20034;-75
2023/08/10 11:35:50;;;;;;;7.72;4.32;;;27.60;99.90;;;;;;4983601;28;20140;-78
2023/08/10 11:38:17;;;;;;;4.65;3.33;;;27.50;99.90;;;;;;4980128;28;20085;-76
2023/08/10 11:40:46;;;;;;;3.50;2.40;;;27.70;99.90;;;;;;4982291;28;20046;-75
2023/08/10 11:43:15;;;;;;;6.07;2.78;;;27.60;99.90;;;;;;4982528;28;20069;-79
2023/08/10 11:45:43;;;;;;;4.63;2.92;;;27.40;99.90;;;;;;4980416;28;20133;-76
2023/08/10 11:48:12;;;;;;;9.80;3.78;;;26.80;99.90;;;;;;4986624;28;20042;-76
2023/08/10 11:50:40;;;;;;;5.57;3.40;;;26.80;99.90;;;;;;4977339;28;20057;-76
2023/08/10 11:53:15;;;;;;;5.10;3.15;;;26.40;99.90;;;;;;4982929;28;20426;-76
2023/08/10 11:55:44;;;;;;;4.30;3.05;;;25.90;99.90;;;;;;4983929;28;20046;-75
2023/08/10 11:58:13;;;;;;;4.03;2.83;;;25.90;99.90;;;;;;4980701;28;20126;-75
2023/08/10 12:00:42;;;;;;;5.43;2.83;;;26.40;99.90;;;;;;4980550;28;20042;-76
2023/08/10 12:03:11;;;;;;;5.55;2.85;;;26.20;99.90;;;;;;4982425;28;20042;-76
2023/08/10 12:05:45;;;;;;;5.82;2.90;;;26.10;99.90;;;;;;4983170;28;20042;-78
2023/08/10 12:08:17;;;;;;;4.15;2.45;;;26.20;99.90;;;;;;4981275;28;20097;-77
2023/08/10 12:10:47;;;;;;;4.55;2.50;;;26.30;99.90;;;;;;4981564;28;20058;-78
2023/08/10 12:13:17;;;;;;;3.85;2.60;;;26.20;99.90;;;;;;4982740;28;20075;-76
2023/08/10 12:15:46;;;;;;;4.65;2.67;;;26.50;99.90;;;;;;4982395;28;20077;-76
2023/08/10 12:18:15;;;;;;;5.72;2.60;;;26.30;99.90;;;;;;4990614;28;20030;-77
2023/08/10 12:20:44;;;;;;;4.95;2.47;;;26.40;99.90;;;;;;4995188;28;20039;-76
2023/08/10 12:23:14;;;;;;;3.65;2.30;;;26.20;99.90;;;;;;4998824;28;20038;-78
2023/08/10 12:25:44;;;;;;;4.18;2.67;;;25.80;99.90;;;;;;4998452;28;20106;-76
2023/08/10 12:28:12;;;;;;;4.10;2.88;;;25.20;99.90;;;;;;4990518;28;20051;-78
2023/08/10 12:30:41;;;;;;;4.30;2.63;;;24.90;99.90;;;;;;4990629;28;20038;-76
2023/08/10 12:33:09;;;;;;;5.80;2.65;;;25.10;99.90;;;;;;4988043;28;20062;-76
2023/08/10 12:35:37;;;;;;;5.40;2.47;;;25.00;99.90;;;;;;4985399;28;20079;-75
2023/08/10 12:38:05;;;;;;;4.25;2.40;;;25.00;99.90;;;;;;4983273;28;20046;-78
2023/08/10 12:40:36;;;;;;;4.13;2.78;;;25.00;99.90;;;;;;4985529;28;20524;-76
2023/08/10 12:43:05;;;;;;;4.60;2.90;;;24.80;99.90;;;;;;4992694;28;20051;-75
2023/08/10 12:45:33;;;;;;;5.30;3.15;;;24.70;99.90;;;;;;4989962;28;20046;-75
2023/08/10 12:48:01;;;;;;;5.50;3.28;;;24.80;99.90;;;;;;4985993;28;20166;-75
2023/08/10 12:50:29;;;;;;;4.15;2.72;;;25.30;99.90;;;;;;4979813;28;20077;-76